• Join FlightAware (Why Join?)
  • Login
  • US Flag 
04:48PM EDT


 

Airport Tracker/Info


-or-


 

Live Flight TrackerFlight Track Log ✈ C-FTOH ✈ 15-Apr-2013 ✈ CYQB - CYBG

Flight Track Log - Related Links

Times and Time Zones

All times are in EDT time to prevent confusion due to time zone crossing. See the C-FTOH flight status page for this flight to view local times or setup timezone preferences in your user account.

Time Position Orientation Groundspeed Altitude Reporting Facility
EDT Latitude Longitude Course Direction KTS MPH feet Rate Location/Type
09:55PM 46.7990 -71.3830 44° Northeast 159 183 400  Level FlightAware
09:56PM 46.8120 -71.3660 42° Northeast 169 194 1,400 1,740 Climbing FlightAware
09:56PM 46.8330 -71.3400 40° Northeast 219 252 2,000 1,980 Climbing FlightAware
09:57PM 46.8570 -71.3110 40° Northeast 235 270 3,400 2,160 Climbing FlightAware
09:57PM 46.8850 -71.2770 40° Northeast 284 327 4,200 1,920 Climbing FlightAware
09:57PM 46.8970 -71.2690 24° Northeast 289 333 4,700 3,840 Climbing FlightAware
09:57PM 46.9160 -71.2640 10° North 275 316 5,800 3,780 Climbing FlightAware
09:58PM 46.9710 -71.2630 North 271 312 8,500 3,300 Climbing FlightAware
09:59PM 47.0030 -71.2640 359° North 280 322 9,700 2,460 Climbing FlightAware
09:59PM 47.0640 -71.2640 360° North 305 351 11,400 2,640 Climbing FlightAware
10:00PM 47.1200 -71.2650 359° North 304 350 13,500 3,180 Climbing FlightAware
10:01PM 47.1770 -71.2650 360° North 308 354 15,700 2,520 Climbing FlightAware
10:01PM 47.2260 -71.2650 360° North 311 358 16,700 660 Climbing FlightAware
10:02PM 47.2980 -71.2660 359° North 310 357 16,700  Level FlightAware
10:03PM 47.3620 -71.2670 359° North 311 358 16,700  Level FlightAware
10:04PM 47.4200 -71.2690 359° North 312 359 16,700 -180 Level FlightAware
10:04PM 47.4760 -71.2700 359° North 305 351 16,500 -720 Descending FlightAware
10:05PM 47.5360 -71.2720 359° North 291 335 15,700 -1,080 Descending FlightAware
10:06PM 47.5910 -71.2740 359° North 283 326 15,000 -1,080 Descending FlightAware
10:06PM 47.6490 -71.2760 359° North 284 327 14,200 -1,080 Descending FlightAware